Time;durP1;ratioP1;P1;durP2;ratioP2;P2;SDS_P1;SDS_P2;PMS_P1;PMS_P2;Temp;Humidity;BMP_temperature;BMP_pressure;BME280_temperature;BME280_humidity;BME280_pressure;Samples;Min_cycle;Max_cycle;Signal;HPM_P1;HPM_P2
2022/10/09 00:01:49;;;;;;;;;;;11.00;90.80;;;;;;5080139;28;19969;-70
2022/10/09 00:04:14;;;;;;;;;;;11.00;90.80;;;;;;5082281;28;19916;-70
2022/10/09 00:06:40;;;;;;;;;;;11.00;90.80;;;;;;5067147;28;19920;-70
2022/10/09 00:09:05;;;;;;;;;;;11.00;90.80;;;;;;5077663;28;19923;-70
2022/10/09 00:11:32;;;;;;;;;;;10.90;90.80;;;;;;5085699;28;19920;-70
2022/10/09 00:13:57;;;;;;;;;;;10.90;90.80;;;;;;5084084;28;19922;-70
2022/10/09 00:16:23;;;;;;;;;;;10.90;90.80;;;;;;5085737;28;19915;-70
2022/10/09 00:18:49;;;;;;;;;;;10.90;90.80;;;;;;5083865;28;19923;-70
2022/10/09 00:21:17;;;;;;;;;;;10.90;90.80;;;;;;5084075;28;19916;-70
2022/10/09 00:23:43;;;;;;;;;;;10.90;90.80;;;;;;5083868;28;19978;-70
2022/10/09 00:26:08;;;;;;;;;;;10.90;90.80;;;;;;5086547;28;20340;-70
2022/10/09 00:28:34;;;;;;;;;;;10.80;90.80;;;;;;5083510;28;20043;-70
2022/10/09 00:31:02;;;;;;;;;;;10.80;90.80;;;;;;5083948;28;19916;-70
2022/10/09 00:33:28;;;;;;;;;;;10.80;90.80;;;;;;5083491;28;20269;-70
2022/10/09 00:35:53;;;;;;;;;;;10.80;90.80;;;;;;5082407;28;19926;-70
2022/10/09 00:38:19;;;;;;;;;;;10.80;90.70;;;;;;5084503;28;19916;-70
2022/10/09 00:40:44;;;;;;;;;;;10.80;90.70;;;;;;5082473;28;19912;-70
2022/10/09 00:43:13;;;;;;;;;;;10.80;90.70;;;;;;5086094;28;19922;-70
2022/10/09 00:45:40;;;;;;;;;;;10.80;90.70;;;;;;5080969;28;19955;-70
2022/10/09 00:48:06;;;;;;;;;;;10.80;90.70;;;;;;5086237;28;20009;-71
2022/10/09 00:50:41;;;;;;;;;;;10.70;90.70;;;;;;5081689;28;19954;-71
2022/10/09 00:53:09;;;;;;;;;;;10.70;90.70;;;;;;5083586;28;19928;-70
2022/10/09 00:55:36;;;;;;;;;;;10.70;91.00;;;;;;5082123;28;19927;-70
2022/10/09 00:58:02;;;;;;;;;;;10.70;90.70;;;;;;5085714;28;19912;-70
2022/10/09 01:00:27;;;;;;;;;;;10.70;90.70;;;;;;5080491;28;19912;-70
2022/10/09 01:02:53;;;;;;;;;;;10.70;90.70;;;;;;5082670;28;19919;-70
2022/10/09 01:05:19;;;;;;;;;;;10.60;90.70;;;;;;5080219;28;20029;-70
2022/10/09 01:07:47;;;;;;;;;;;10.60;90.70;;;;;;5084344;28;20352;-70
2022/10/09 01:10:19;;;;;;;;;;;10.60;90.70;;;;;;5080599;28;19915;-70
2022/10/09 01:12:53;;;;;;;;;;;10.60;90.60;;;;;;5080621;28;20570;-70
2022/10/09 01:15:18;;;;;;;;;;;10.60;90.60;;;;;;5084216;28;20620;-70
2022/10/09 01:17:49;;;;;;;;;;;10.60;90.60;;;;;;5082465;28;19924;-70
2022/10/09 01:20:21;;;;;;;;;;;10.60;90.60;;;;;;5080317;28;19916;-70
2022/10/09 01:23:06;;;;;;;;;;;10.50;90.60;;;;;;5082032;28;20330;-70
2022/10/09 01:25:43;;;;;;;;;;;10.50;90.60;;;;;;5082789;28;19923;-70
2022/10/09 01:28:10;;;;;;;;;;;10.50;90.60;;;;;;5082462;28;19912;-70
2022/10/09 01:30:35;;;;;;;;;;;10.50;90.60;;;;;;5084746;28;20631;-71
2022/10/09 01:33:01;;;;;;;;;;;10.50;90.60;;;;;;5079832;28;19912;-70
2022/10/09 01:35:28;;;;;;;;;;;10.50;90.60;;;;;;5080188;28;19924;-70
2022/10/09 01:37:54;;;;;;;;;;;10.50;90.60;;;;;;5078299;28;19916;-70
2022/10/09 01:40:20;;;;;;;;;;;10.40;90.60;;;;;;5083507;28;19912;-70
2022/10/09 01:42:46;;;;;;;;;;;10.40;90.50;;;;;;5081077;28;19989;-70
2022/10/09 01:45:12;;;;;;;;;;;10.40;90.50;;;;;;5080480;28;19996;-70
2022/10/09 01:47:37;;;;;;;;;;;10.40;90.50;;;;;;5082961;28;19923;-70
2022/10/09 01:50:09;;;;;;;;;;;10.40;90.50;;;;;;5084253;28;19942;-70
2022/10/09 01:52:41;;;;;;;;;;;10.40;90.50;;;;;;5080126;28;19916;-70
2022/10/09 01:55:18;;;;;;;;;;;10.30;90.50;;;;;;5079979;28;19920;-70
2022/10/09 01:57:47;;;;;;;;;;;10.30;90.50;;;;;;5082068;28;19959;-70
2022/10/09 02:00:13;;;;;;;;;;;10.40;90.50;;;;;;5081326;28;19924;-70
2022/10/09 02:02:40;;;;;;;;;;;10.30;90.50;;;;;;5078896;28;19920;-70
2022/10/09 02:05:07;;;;;;;;;;;10.30;90.50;;;;;;5082993;28;20011;-70
2022/10/09 02:07:33;;;;;;;;;;;10.30;90.50;;;;;;5080225;28;19916;-70
2022/10/09 02:10:01;;;;;;;;;;;10.30;90.50;;;;;;5080716;28;19923;-70
2022/10/09 02:12:28;;;;;;;;;;;10.30;90.50;;;;;;5080395;28;20188;-70
2022/10/09 02:14:54;;;;;;;;;;;10.30;90.50;;;;;;5080875;28;19965;-70
2022/10/09 02:17:22;;;;;;;;;;;10.20;90.40;;;;;;5082770;28;19916;-70
2022/10/09 02:19:50;;;;;;;;;;;10.20;90.40;;;;;;5063953;28;20280;-70
2022/10/09 02:22:24;;;;;;;;;;;10.20;90.40;;;;;;5084599;28;19912;-71
2022/10/09 02:24:50;;;;;;;;;;;10.20;90.40;;;;;;5083498;28;19920;-70
2022/10/09 02:27:17;;;;;;;;;;;10.20;90.40;;;;;;5085572;28;19965;-70
2022/10/09 02:29:43;;;;;;;;;;;10.20;90.50;;;;;;5082460;28;19916;-70
2022/10/09 02:32:09;;;;;;;;;;;10.20;90.40;;;;;;5082559;28;20005;-70
2022/10/09 02:34:35;;;;;;;;;;;10.10;90.40;;;;;;5082422;28;19944;-70
2022/10/09 02:37:01;;;;;;;;;;;10.10;90.40;;;;;;5088066;28;19927;-70
2022/10/09 02:39:26;;;;;;;;;;;10.10;90.40;;;;;;5085712;28;19989;-70
2022/10/09 02:41:52;;;;;;;;;;;10.10;90.40;;;;;;5080794;28;19912;-70
2022/10/09 02:44:17;;;;;;;;;;;10.10;90.40;;;;;;5081543;28;19923;-70
2022/10/09 02:46:43;;;;;;;;;;;10.10;90.40;;;;;;5086936;28;19912;-70
2022/10/09 02:49:08;;;;;;;;;;;10.10;90.40;;;;;;5083912;28;20006;-70
2022/10/09 02:51:34;;;;;;;;;;;10.10;90.40;;;;;;5082640;28;20023;-70
2022/10/09 02:53:59;;;;;;;;;;;10.10;90.40;;;;;;5087971;28;21138;-70
2022/10/09 02:56:25;;;;;;;;;;;10.10;90.30;;;;;;5085378;28;20007;-70
2022/10/09 02:58:51;;;;;;;;;;;10.00;90.30;;;;;;5080726;28;19916;-70
2022/10/09 03:01:16;;;;;;;;;;;10.00;90.30;;;;;;5081161;28;19927;-70
2022/10/09 03:03:42;;;;;;;;;;;10.00;90.30;;;;;;5086765;28;19917;-70
2022/10/09 03:06:09;;;;;;;;;;;10.00;90.30;;;;;;5084921;28;19920;-70
2022/10/09 03:08:39;;;;;;;;;;;10.00;90.30;;;;;;5088067;28;19912;-70
2022/10/09 03:11:04;;;;;;;;;;;10.00;90.30;;;;;;5082150;28;19921;-70
2022/10/09 03:13:31;;;;;;;;;;;10.00;90.30;;;;;;5088264;28;19977;-70
2022/10/09 03:16:07;;;;;;;;;;;10.00;90.30;;;;;;5066288;28;20599;-70
2022/10/09 03:18:32;;;;;;;;;;;9.90;90.20;;;;;;5087656;28;19912;-70
2022/10/09 03:20:58;;;;;;;;;;;9.90;90.20;;;;;;5084615;28;20417;-70
2022/10/09 03:23:24;;;;;;;;;;;9.90;90.20;;;;;;5086614;28;19965;-70
2022/10/09 03:25:59;;;;;;;;;;;9.90;90.20;;;;;;5079990;28;19920;-70
2022/10/09 03:28:25;;;;;;;;;;;9.90;90.20;;;;;;5085763;28;19916;-70
2022/10/09 03:30:51;;;;;;;;;;;9.90;90.20;;;;;;5081374;28;19931;-70
2022/10/09 03:33:17;;;;;;;;;;;9.90;90.20;;;;;;5083582;28;19927;-70
2022/10/09 03:35:44;;;;;;;;;;;9.90;90.20;;;;;;5082280;28;19923;-70
2022/10/09 03:38:09;;;;;;;;;;;9.90;90.20;;;;;;5076590;28;19919;-70
2022/10/09 03:40:34;;;;;;;;;;;9.80;90.20;;;;;;5081408;28;19916;-70
2022/10/09 03:43:00;;;;;;;;;;;9.80;90.20;;;;;;5080870;28;19913;-70
2022/10/09 03:45:25;;;;;;;;;;;9.80;90.20;;;;;;5083370;28;20304;-70
2022/10/09 03:47:51;;;;;;;;;;;9.80;90.20;;;;;;5082547;28;19916;-70
2022/10/09 03:50:16;;;;;;;;;;;9.80;90.20;;;;;;5086309;28;20439;-70
2022/10/09 03:52:42;;;;;;;;;;;9.80;90.20;;;;;;5083824;28;20061;-70
2022/10/09 03:55:07;;;;;;;;;;;9.80;90.20;;;;;;5087294;28;20018;-70
2022/10/09 03:57:34;;;;;;;;;;;9.80;90.20;;;;;;5079934;28;20767;-70
2022/10/09 03:59:59;;;;;;;;;;;9.80;90.20;;;;;;5084754;28;20043;-70
2022/10/09 04:02:25;;;;;;;;;;;9.80;90.20;;;;;;5079276;28;20606;-70
2022/10/09 04:04:50;;;;;;;;;;;9.70;90.10;;;;;;5079536;28;19969;-70
2022/10/09 04:07:16;;;;;;;;;;;9.70;90.10;;;;;;5083554;28;19924;-70
2022/10/09 04:09:41;;;;;;;;;;;9.70;90.10;;;;;;5086727;28;19959;-70
2022/10/09 04:12:07;;;;;;;;;;;9.70;90.40;;;;;;5082284;28;20425;-70
2022/10/09 04:14:32;;;;;;;;;;;9.70;90.10;;;;;;5082035;28;19919;-70
2022/10/09 04:16:58;;;;;;;;;;;9.60;90.10;;;;;;5084356;28;19920;-70
2022/10/09 04:19:23;;;;;;;;;;;9.70;90.10;;;;;;5079052;28;19919;-70
2022/10/09 04:21:48;;;;;;;;;;;9.60;90.10;;;;;;5077291;28;20404;-70
2022/10/09 04:24:14;;;;;;;;;;;9.60;90.10;;;;;;5083693;28;19954;-70
2022/10/09 04:26:39;;;;;;;;;;;9.60;90.10;;;;;;5087135;28;19916;-70
2022/10/09 04:29:05;;;;;;;;;;;9.60;90.00;;;;;;5082218;28;19963;-70
2022/10/09 04:31:30;;;;;;;;;;;9.60;90.10;;;;;;5077060;28;20554;-70
2022/10/09 04:33:56;;;;;;;;;;;9.60;90.10;;;;;;5078529;28;19920;-70
2022/10/09 04:36:22;;;;;;;;;;;9.60;90.10;;;;;;5086022;28;20012;-70
2022/10/09 04:38:47;;;;;;;;;;;9.50;90.00;;;;;;5079119;28;19920;-70
2022/10/09 04:41:13;;;;;;;;;;;9.50;90.00;;;;;;5085116;28;19923;-70
2022/10/09 04:43:38;;;;;;;;;;;9.50;90.00;;;;;;5083271;28;19942;-70
2022/10/09 04:46:04;;;;;;;;;;;9.50;90.30;;;;;;5081483;28;19908;-70
2022/10/09 04:48:30;;;;;;;;;;;9.50;90.00;;;;;;5079656;28;19919;-69
2022/10/09 04:50:55;;;;;;;;;;;9.50;90.00;;;;;;5080489;28;20277;-70
2022/10/09 04:53:21;;;;;;;;;;;9.50;90.00;;;;;;5066877;28;19913;-70
2022/10/09 04:55:46;;;;;;;;;;;9.50;90.00;;;;;;5079340;28;20317;-70
2022/10/09 04:58:12;;;;;;;;;;;9.50;90.00;;;;;;5078167;28;20368;-70
2022/10/09 05:00:41;;;;;;;;;;;9.40;89.90;;;;;;5080737;28;19916;-70
2022/10/09 05:03:07;;;;;;;;;;;9.40;89.90;;;;;;5083471;28;19916;-70
2022/10/09 05:05:32;;;;;;;;;;;9.40;90.00;;;;;;5080732;28;19920;-69
2022/10/09 05:07:58;;;;;;;;;;;9.50;90.00;;;;;;5073927;28;19912;-70
2022/10/09 05:10:23;;;;;;;;;;;9.40;89.90;;;;;;5080986;28;19912;-70
2022/10/09 05:12:49;;;;;;;;;;;9.40;89.90;;;;;;5083049;28;20908;-70
2022/10/09 05:15:14;;;;;;;;;;;9.40;89.80;;;;;;5082422;28;19920;-70
2022/10/09 05:17:40;;;;;;;;;;;9.40;89.80;;;;;;5084726;28;19947;-69
2022/10/09 05:20:05;;;;;;;;;;;9.40;89.80;;;;;;5082118;28;20518;-70
2022/10/09 05:22:31;;;;;;;;;;;9.40;89.80;;;;;;5083411;28;19961;-70
2022/10/09 05:24:56;;;;;;;;;;;9.40;89.80;;;;;;5073640;28;19924;-69
2022/10/09 05:27:22;;;;;;;;;;;9.30;89.80;;;;;;5081116;28;19991;-70
2022/10/09 05:29:47;;;;;;;;;;;9.30;89.70;;;;;;5084654;28;19920;-70
2022/10/09 05:32:13;;;;;;;;;;;9.30;89.70;;;;;;5077245;28;20322;-70
2022/10/09 05:34:39;;;;;;;;;;;9.30;89.70;;;;;;5079444;28;19912;-69
2022/10/09 05:37:04;;;;;;;;;;;9.30;89.70;;;;;;5078402;28;19916;-70
2022/10/09 05:39:31;;;;;;;;;;;9.30;89.60;;;;;;5082124;28;19916;-70
2022/10/09 05:41:57;;;;;;;;;;;9.30;89.70;;;;;;5080730;28;20011;-70
2022/10/09 05:44:22;;;;;;;;;;;9.30;89.60;;;;;;5079755;28;20003;-70
2022/10/09 05:46:48;;;;;;;;;;;9.30;89.60;;;;;;5081373;28;19947;-70
2022/10/09 05:49:13;;;;;;;;;;;9.30;89.60;;;;;;5081131;28;19919;-69
2022/10/09 05:51:41;;;;;;;;;;;9.20;89.60;;;;;;5075784;28;19923;-69
2022/10/09 05:54:08;;;;;;;;;;;9.20;89.60;;;;;;5084428;28;19961;-69
2022/10/09 05:56:35;;;;;;;;;;;9.20;89.50;;;;;;5083158;28;20384;-69
2022/10/09 05:59:02;;;;;;;;;;;9.20;89.60;;;;;;5089366;28;19912;-69
2022/10/09 06:01:29;;;;;;;;;;;9.20;89.60;;;;;;5083329;28;19927;-70
2022/10/09 06:03:56;;;;;;;;;;;9.20;89.60;;;;;;5081461;28;19985;-70
2022/10/09 06:06:23;;;;;;;;;;;9.20;89.50;;;;;;5086832;28;19920;-70
2022/10/09 06:08:49;;;;;;;;;;;9.20;89.50;;;;;;5086416;28;19970;-69
2022/10/09 06:11:15;;;;;;;;;;;9.20;89.50;;;;;;5083590;28;19969;-69
2022/10/09 06:13:42;;;;;;;;;;;9.20;89.50;;;;;;5068313;28;19912;-70
2022/10/09 06:16:10;;;;;;;;;;;9.20;89.50;;;;;;5087859;28;19945;-70
2022/10/09 06:18:36;;;;;;;;;;;9.20;89.40;;;;;;5085865;28;19943;-69
2022/10/09 06:21:02;;;;;;;;;;;9.20;89.40;;;;;;5085668;28;19912;-70
2022/10/09 06:23:30;;;;;;;;;;;9.20;89.50;;;;;;5076860;28;19942;-70
2022/10/09 06:25:57;;;;;;;;;;;9.20;89.40;;;;;;5088460;28;19994;-69
2022/10/09 06:28:23;;;;;;;;;;;9.20;89.50;;;;;;5085520;28;19923;-70
2022/10/09 06:30:48;;;;;;;;;;;9.20;89.40;;;;;;5088498;28;19916;-69
2022/10/09 06:33:14;;;;;;;;;;;9.20;89.40;;;;;;5084246;28;19935;-69
2022/10/09 06:35:40;;;;;;;;;;;9.20;89.30;;;;;;5086419;28;19927;-69
2022/10/09 06:38:05;;;;;;;;;;;9.20;89.40;;;;;;5083108;28;20015;-70
2022/10/09 06:40:37;;;;;;;;;;;9.20;89.40;;;;;;5087828;28;19920;-70
2022/10/09 06:43:03;;;;;;;;;;;9.20;89.50;;;;;;5081702;28;19908;-70
2022/10/09 06:45:29;;;;;;;;;;;9.20;89.50;;;;;;5084343;28;20332;-70
2022/10/09 06:47:55;;;;;;;;;;;9.20;89.50;;;;;;5085587;28;19912;-69
2022/10/09 06:50:20;;;;;;;;;;;9.10;89.40;;;;;;5082554;28;19920;-69
2022/10/09 06:52:46;;;;;;;;;;;9.10;89.40;;;;;;5083988;28;20001;-70
2022/10/09 06:55:11;;;;;;;;;;;9.20;89.50;;;;;;5082936;28;19920;-70
2022/10/09 06:57:37;;;;;;;;;;;9.10;89.40;;;;;;5082950;28;19908;-70
2022/10/09 07:00:03;;;;;;;;;;;9.20;89.50;;;;;;5085776;28;20611;-70
2022/10/09 07:02:30;;;;;;;;;;;9.20;89.50;;;;;;5085112;28;20020;-70
2022/10/09 07:04:56;;;;;;;;;;;9.10;89.50;;;;;;5084629;28;20014;-70
2022/10/09 07:07:21;;;;;;;;;;;9.20;89.60;;;;;;5081691;28;20352;-70
2022/10/09 07:09:47;;;;;;;;;;;9.20;89.60;;;;;;5085196;28;19912;-70
2022/10/09 07:12:12;;;;;;;;;;;9.20;89.60;;;;;;5085057;28;20019;-70
2022/10/09 07:14:38;;;;;;;;;;;9.20;89.70;;;;;;5079257;28;19920;-70
2022/10/09 07:17:04;;;;;;;;;;;9.20;89.70;;;;;;5087437;28;19912;-70
2022/10/09 07:19:30;;;;;;;;;;;9.20;89.70;;;;;;5085478;28;20273;-70
2022/10/09 07:21:55;;;;;;;;;;;9.20;89.70;;;;;;5083561;28;19912;-70
2022/10/09 07:24:23;;;;;;;;;;;9.20;89.70;;;;;;5082493;28;19912;-69
2022/10/09 07:26:48;;;;;;;;;;;9.20;89.80;;;;;;5084302;28;19920;-70
2022/10/09 07:29:15;;;;;;;;;;;9.20;89.80;;;;;;5082173;28;19923;-70
2022/10/09 07:31:40;;;;;;;;;;;9.20;89.90;;;;;;5079229;28;20411;-70
2022/10/09 07:34:06;;;;;;;;;;;9.20;89.90;;;;;;5087095;28;19916;-70
2022/10/09 07:36:32;;;;;;;;;;;9.20;89.90;;;;;;5084114;28;20360;-70
2022/10/09 07:38:57;;;;;;;;;;;9.20;89.90;;;;;;5087093;28;19918;-70
2022/10/09 07:41:24;;;;;;;;;;;9.20;90.00;;;;;;5083939;28;19916;-70
2022/10/09 07:43:50;;;;;;;;;;;9.20;89.90;;;;;;5085640;28;19912;-70
2022/10/09 07:46:17;;;;;;;;;;;9.30;90.00;;;;;;5082657;28;19999;-71
2022/10/09 07:48:43;;;;;;;;;;;9.30;90.00;;;;;;5084915;28;19919;-71
2022/10/09 07:51:09;;;;;;;;;;;9.30;90.00;;;;;;5078310;28;19916;-70
2022/10/09 07:53:35;;;;;;;;;;;9.30;90.00;;;;;;5086316;28;19955;-70
2022/10/09 07:56:00;;;;;;;;;;;9.30;90.00;;;;;;5083707;28;19947;-70
2022/10/09 07:58:26;;;;;;;;;;;9.30;90.10;;;;;;5081422;28;20268;-70
2022/10/09 08:00:51;;;;;;;;;;;9.30;90.00;;;;;;5080326;28;19912;-71
2022/10/09 08:03:17;;;;;;;;;;;9.30;90.00;;;;;;5082094;28;19916;-70
2022/10/09 08:05:42;;;;;;;;;;;9.30;90.00;;;;;;5081283;28;19925;-70
2022/10/09 08:08:08;;;;;;;;;;;9.40;90.10;;;;;;5080746;28;20699;-70
2022/10/09 08:10:33;;;;;;;;;;;9.40;90.10;;;;;;5085280;28;19916;-70
2022/10/09 08:12:59;;;;;;;;;;;9.40;90.00;;;;;;5064233;28;19995;-70
2022/10/09 08:15:25;;;;;;;;;;;9.40;90.10;;;;;;5083265;28;19949;-70
2022/10/09 08:17:53;;;;;;;;;;;9.50;90.10;;;;;;5075392;28;20026;-70
2022/10/09 08:20:19;;;;;;;;;;;9.50;90.00;;;;;;5080050;28;19936;-70
2022/10/09 08:22:44;;;;;;;;;;;9.50;90.00;;;;;;5082216;28;19912;-70
2022/10/09 08:25:10;;;;;;;;;;;9.50;90.00;;;;;;5082849;28;19912;-70
2022/10/09 08:27:35;;;;;;;;;;;9.50;90.00;;;;;;5080837;28;19916;-69
2022/10/09 08:30:01;;;;;;;;;;;9.50;90.00;;;;;;5083529;28;19913;-70
2022/10/09 08:32:26;;;;;;;;;;;9.50;90.00;;;;;;5082515;28;19912;-69
2022/10/09 08:34:52;;;;;;;;;;;9.60;90.10;;;;;;5086060;28;19918;-70
2022/10/09 08:37:17;;;;;;;;;;;9.60;90.10;;;;;;5085732;28;19916;-70
2022/10/09 08:39:43;;;;;;;;;;;9.60;90.00;;;;;;5083867;28;19916;-70
2022/10/09 08:42:15;;;;;;;;;;;9.70;90.00;;;;;;5083857;28;19912;-70
2022/10/09 08:44:44;;;;;;;;;;;9.70;90.00;;;;;;5080079;28;19965;-70
2022/10/09 08:47:23;;;;;;;;;;;9.70;90.00;;;;;;5083597;28;19915;-70
2022/10/09 08:49:54;;;;;;;;;;;9.70;90.00;;;;;;5081221;28;20521;-70
2022/10/09 08:52:25;;;;;;;;;;;9.70;90.00;;;;;;5083714;28;19916;-71
2022/10/09 08:54:51;;;;;;;;;;;9.80;90.00;;;;;;5082163;28;20667;-70
2022/10/09 08:57:18;;;;;;;;;;;9.80;89.90;;;;;;5084970;28;19923;-70
2022/10/09 08:59:43;;;;;;;;;;;9.90;89.90;;;;;;5083384;28;20340;-70
2022/10/09 09:02:41;;;;;;;;;;;9.90;89.80;;;;;;5084881;28;19923;-70
2022/10/09 09:05:10;;;;;;;;;;;9.90;89.70;;;;;;5042857;28;20509;-70
2022/10/09 09:07:50;;;;;;;;;;;10.00;89.70;;;;;;5080568;28;19957;-70
2022/10/09 09:10:21;;;;;;;;;;;10.00;89.80;;;;;;5082641;28;19920;-70
2022/10/09 09:13:02;;;;;;;;;;;10.00;89.80;;;;;;5086502;28;19916;-70
2022/10/09 09:15:41;;;;;;;;;;;10.00;89.60;;;;;;5078799;28;20262;-70
2022/10/09 09:18:23;;;;;;;;;;;10.10;89.50;;;;;;5084798;28;19992;-70
2022/10/09 09:20:57;;;;;;;;;;;10.10;89.50;;;;;;5077153;28;19916;-70
2022/10/09 09:23:28;;;;;;;;;;;10.10;89.50;;;;;;5084863;28;19912;-70
2022/10/09 09:25:54;;;;;;;;;;;10.10;89.60;;;;;;5078371;28;20022;-70
2022/10/09 09:28:23;;;;;;;;;;;10.20;89.80;;;;;;5083247;28;20276;-70
2022/10/09 09:31:11;;;;;;;;;;;10.20;89.60;;;;;;5082247;28;19916;-70
2022/10/09 09:33:56;;;;;;;;;;;10.30;89.60;;;;;;5079982;28;20380;-70
2022/10/09 09:36:21;;;;;;;;;;;10.30;89.60;;;;;;5080376;28;19927;-70
2022/10/09 09:38:47;;;;;;;;;;;10.30;89.30;;;;;;5080076;28;19912;-70
2022/10/09 09:41:13;;;;;;;;;;;10.40;89.50;;;;;;5079966;28;20678;-70
2022/10/09 09:43:38;;;;;;;;;;;10.40;89.20;;;;;;5083422;28;19919;-70
2022/10/09 09:46:11;;;;;;;;;;;10.40;89.10;;;;;;5081703;28;19915;-70
2022/10/09 09:48:40;;;;;;;;;;;10.50;89.00;;;;;;5083403;28;20502;-70
2022/10/09 09:51:11;;;;;;;;;;;10.50;89.40;;;;;;5080300;28;19958;-70
2022/10/09 09:53:41;;;;;;;;;;;10.50;89.00;;;;;;5083900;28;19916;-70
2022/10/09 09:56:07;;;;;;;;;;;10.50;89.30;;;;;;5081475;28;19931;-70
2022/10/09 09:58:33;;;;;;;;;;;10.60;88.90;;;;;;5081520;28;20006;-70
2022/10/09 10:01:01;;;;;;;;;;;10.60;89.40;;;;;;5080362;28;19955;-70
2022/10/09 10:03:27;;;;;;;;;;;10.70;88.90;;;;;;5083901;28;19919;-70
2022/10/09 10:05:53;;;;;;;;;;;10.70;88.70;;;;;;5077329;28;19920;-70
2022/10/09 10:08:29;;;;;;;;;;;10.80;89.20;;;;;;5060572;28;19923;-70
2022/10/09 10:10:56;;;;;;;;;;;10.80;89.20;;;;;;5060456;28;19961;-70
2022/10/09 10:13:24;;;;;;;;;;;10.80;88.90;;;;;;5080575;28;19966;-70
2022/10/09 10:15:52;;;;;;;;;;;10.90;88.90;;;;;;5082929;28;19924;-70
2022/10/09 10:18:18;;;;;;;;;;;10.90;88.80;;;;;;5080027;28;19971;-70
2022/10/09 10:20:44;;;;;;;;;;;10.90;88.60;;;;;;5083261;28;19958;-70
2022/10/09 10:23:29;;;;;;;;;;;11.00;88.60;;;;;;5080361;28;19973;-70
2022/10/09 10:25:56;;;;;;;;;;;11.00;88.50;;;;;;5078706;28;19922;-70
2022/10/09 10:28:25;;;;;;;;;;;11.10;88.30;;;;;;5080584;28;19920;-70
2022/10/09 10:30:53;;;;;;;;;;;11.20;88.20;;;;;;5083143;28;20541;-70
2022/10/09 10:33:21;;;;;;;;;;;11.20;88.00;;;;;;5078520;28;19916;-70
2022/10/09 10:35:48;;;;;;;;;;;11.30;87.90;;;;;;5081200;28;19920;-70
2022/10/09 10:38:21;;;;;;;;;;;11.30;88.00;;;;;;5077488;28;19916;-68
2022/10/09 10:40:50;;;;;;;;;;;11.30;87.90;;;;;;5082395;28;20447;-70
2022/10/09 10:43:18;;;;;;;;;;;11.40;87.90;;;;;;5081210;28;19920;-71
2022/10/09 10:46:04;;;;;;;;;;;11.50;88.20;;;;;;5088242;28;19912;-70
2022/10/09 10:48:30;;;;;;;;;;;11.50;87.70;;;;;;5080669;28;20327;-70
2022/10/09 10:51:16;;;;;;;;;;;11.60;87.90;;;;;;5086635;28;19938;-71
2022/10/09 10:53:58;;;;;;;;;;;11.60;87.60;;;;;;5039657;28;19916;-71
2022/10/09 10:56:24;;;;;;;;;;;11.70;87.80;;;;;;5087673;28;19916;-71
2022/10/09 10:58:52;;;;;;;;;;;11.70;87.60;;;;;;5083990;28;19923;-71
2022/10/09 11:01:36;;;;;;;;;;;11.70;87.80;;;;;;5081555;28;19920;-72
2022/10/09 11:04:10;;;;;;;;;;;11.70;87.70;;;;;;5083108;28;19912;-70
2022/10/09 11:06:56;;;;;;;;;;;11.80;87.60;;;;;;5084102;28;19927;-70
2022/10/09 11:09:42;;;;;;;;;;;11.90;87.60;;;;;;5081431;28;19916;-70
2022/10/09 11:12:07;;;;;;;;;;;11.90;88.30;;;;;;5073114;28;19912;-70
2022/10/09 11:14:42;;;;;;;;;;;12.00;88.20;;;;;;5082859;28;20566;-70
2022/10/09 11:17:16;;;;;;;;;;;12.00;88.00;;;;;;5087444;28;19919;-70
2022/10/09 11:19:50;;;;;;;;;;;12.10;87.90;;;;;;5084263;28;19916;-70
2022/10/09 11:22:22;;;;;;;;;;;12.10;87.90;;;;;;5087525;28;20057;-70
2022/10/09 11:25:07;;;;;;;;;;;12.10;88.00;;;;;;5079804;28;19962;-70
2022/10/09 11:27:36;;;;;;;;;;;12.20;88.00;;;;;;5080954;28;19915;-70
2022/10/09 11:30:04;;;;;;;;;;;12.30;88.00;;;;;;5081563;28;19920;-70
2022/10/09 11:32:45;;;;;;;;;;;12.40;88.10;;;;;;5067374;28;20323;-70
2022/10/09 11:35:10;;;;;;;;;;;12.50;88.20;;;;;;5080331;28;19923;-70
2022/10/09 11:37:38;;;;;;;;;;;12.60;87.70;;;;;;5084564;28;19916;-70
2022/10/09 11:40:12;;;;;;;;;;;12.70;87.20;;;;;;5079741;28;20457;-71
2022/10/09 11:42:38;;;;;;;;;;;12.80;87.60;;;;;;5083224;28;19916;-70
2022/10/09 11:45:07;;;;;;;;;;;12.80;86.90;;;;;;5077782;28;19928;-70
2022/10/09 11:47:38;;;;;;;;;;;12.90;86.90;;;;;;5085340;28;19916;-70
2022/10/09 11:50:22;;;;;;;;;;;13.00;86.50;;;;;;5082330;28;19919;-70
2022/10/09 11:52:47;;;;;;;;;;;13.10;86.90;;;;;;5084787;28;19957;-70
2022/10/09 11:55:22;;;;;;;;;;;13.10;87.00;;;;;;5063863;28;19923;-70
2022/10/09 11:57:47;;;;;;;;;;;13.20;87.20;;;;;;5084741;28;19908;-70
2022/10/09 12:00:14;;;;;;;;;;;13.30;86.60;;;;;;5084561;28;19912;-70
2022/10/09 12:02:40;;;;;;;;;;;13.40;87.30;;;;;;5065749;28;20287;-70
2022/10/09 12:05:35;;;;;;;;;;;13.50;87.30;;;;;;5065348;28;19920;-70
2022/10/09 12:08:12;;;;;;;;;;;13.50;86.80;;;;;;5067140;28;19977;-70
2022/10/09 12:10:39;;;;;;;;;;;13.60;87.50;;;;;;5064255;28;19916;-70
2022/10/09 12:13:06;;;;;;;;;;;13.70;87.10;;;;;;5083751;28;19912;-70
2022/10/09 12:15:37;;;;;;;;;;;13.70;87.20;;;;;;5081441;28;19959;-70
2022/10/09 12:18:12;;;;;;;;;;;13.80;87.50;;;;;;5077956;28;19981;-70
2022/10/09 12:20:39;;;;;;;;;;;13.90;87.60;;;;;;5084672;28;20709;-70
2022/10/09 12:23:08;;;;;;;;;;;13.90;87.60;;;;;;5082804;28;20308;-70
2022/10/09 12:25:39;;;;;;;;;;;14.00;87.50;;;;;;5081477;28;19916;-70
2022/10/09 12:28:05;;;;;;;;;;;14.00;87.30;;;;;;5081700;28;19912;-70
2022/10/09 12:30:37;;;;;;;;;;;14.10;87.80;;;;;;5081551;28;20419;-71
2022/10/09 12:33:24;;;;;;;;;;;14.10;87.10;;;;;;5079171;28;19932;-70
2022/10/09 12:36:15;;;;;;;;;;;14.20;87.50;;;;;;5082851;28;19923;-70
2022/10/09 12:38:41;;;;;;;;;;;14.20;87.90;;;;;;5050737;28;20011;-70
2022/10/09 12:41:11;;;;;;;;;;;14.30;87.50;;;;;;5083282;28;20003;-70
2022/10/09 12:43:42;;;;;;;;;;;14.40;87.40;;;;;;5081527;28;20280;-70
2022/10/09 12:46:07;;;;;;;;;;;14.40;88.00;;;;;;5080417;28;19920;-70
2022/10/09 12:48:35;;;;;;;;;;;14.50;88.30;;;;;;5082496;28;19916;-70
2022/10/09 12:51:01;;;;;;;;;;;14.50;88.10;;;;;;5084796;28;19967;-70
2022/10/09 12:53:27;;;;;;;;;;;14.60;88.10;;;;;;5082310;28;19996;-70
2022/10/09 12:55:57;;;;;;;;;;;14.60;88.00;;;;;;5084426;28;19919;-70
2022/10/09 12:58:27;;;;;;;;;;;14.70;88.50;;;;;;5079964;28;19965;-70
2022/10/09 13:00:58;;;;;;;;;;;14.70;88.80;;;;;;5083651;28;20638;-70
2022/10/09 13:03:24;;;;;;;;;;;14.80;88.70;;;;;;5077120;28;20022;-70
2022/10/09 13:05:49;;;;;;;;;;;14.80;88.40;;;;;;5084863;28;20003;-71
2022/10/09 13:08:25;;;;;;;;;;;14.80;88.70;;;;;;5082176;28;19912;-70
2022/10/09 13:10:51;;;;;;;;;;;14.90;89.50;;;;;;5088136;28;19916;-70
2022/10/09 13:13:23;;;;;;;;;;;14.90;89.50;;;;;;5082186;28;19927;-70
2022/10/09 13:16:03;;;;;;;;;;;15.00;89.10;;;;;;5081966;28;19920;-70
2022/10/09 13:18:28;;;;;;;;;;;15.00;89.10;;;;;;5078734;28;20386;-70
2022/10/09 13:21:05;;;;;;;;;;;15.10;89.40;;;;;;5084972;28;19916;-71
2022/10/09 13:23:32;;;;;;;;;;;15.10;88.80;;;;;;5082869;28;20387;-71
2022/10/09 13:25:58;;;;;;;;;;;15.10;89.80;;;;;;5080566;28;19920;-70
2022/10/09 13:28:23;;;;;;;;;;;15.10;89.90;;;;;;5084722;28;19920;-70
2022/10/09 13:30:49;;;;;;;;;;;15.20;89.90;;;;;;5064921;28;19920;-70
2022/10/09 13:33:15;;;;;;;;;;;15.30;90.10;;;;;;5084682;28;20818;-70
2022/10/09 13:35:40;;;;;;;;;;;15.30;90.00;;;;;;5082330;28;20475;-70
2022/10/09 13:38:09;;;;;;;;;;;15.30;90.10;;;;;;5084726;28;20324;-71
2022/10/09 13:40:34;;;;;;;;;;;15.30;90.10;;;;;;5081882;28;19923;-70
2022/10/09 13:43:01;;;;;;;;;;;15.30;90.10;;;;;;5083885;28;19916;-70
2022/10/09 13:45:27;;;;;;;;;;;15.40;90.10;;;;;;5077072;28;19920;-71
2022/10/09 13:47:52;;;;;;;;;;;15.40;90.30;;;;;;5085177;28;20531;-70
2022/10/09 13:50:18;;;;;;;;;;;15.40;90.00;;;;;;5081010;28;20352;-69
2022/10/09 13:52:44;;;;;;;;;;;15.50;90.40;;;;;;5085013;28;19923;-71
2022/10/09 13:55:10;;;;;;;;;;;15.50;90.00;;;;;;5079208;28;19916;-71
2022/10/09 13:57:35;;;;;;;;;;;15.50;89.90;;;;;;5084240;28;19916;-69
2022/10/09 14:00:00;;;;;;;;;;;15.50;90.50;;;;;;5077923;28;19919;-70
2022/10/09 14:02:26;;;;;;;;;;;15.50;89.90;;;;;;5084152;28;19947;-70
2022/10/09 14:04:51;;;;;;;;;;;15.50;89.90;;;;;;5078789;28;19948;-70
2022/10/09 14:07:17;;;;;;;;;;;15.50;90.70;;;;;;5080942;28;19916;-71
2022/10/09 14:09:42;;;;;;;;;;;15.50;90.70;;;;;;5083911;28;19916;-70
2022/10/09 14:12:08;;;;;;;;;;;15.50;90.60;;;;;;5082123;28;19919;-70
2022/10/09 14:14:34;;;;;;;;;;;15.50;90.70;;;;;;5080747;28;20506;-71
2022/10/09 14:16:59;;;;;;;;;;;15.60;89.60;;;;;;5064205;28;19986;-70
2022/10/09 14:19:26;;;;;;;;;;;15.60;89.80;;;;;;5081632;28;20554;-70
2022/10/09 14:21:55;;;;;;;;;;;15.60;89.50;;;;;;5082711;28;20034;-71
2022/10/09 14:24:21;;;;;;;;;;;15.60;89.30;;;;;;5066495;28;20029;-70
2022/10/09 14:26:46;;;;;;;;;;;15.60;90.10;;;;;;5084496;28;20740;-70